Time;durP1;ratioP1;P1;durP2;ratioP2;P2;SDS_P1;SDS_P2;PMS_P1;PMS_P2;Temp;Humidity;BMP_temperature;BMP_pressure;BME280_temperature;BME280_humidity;BME280_pressure;Samples;Min_cycle;Max_cycle;Signal;HPM_P1;HPM_P2
2022/10/24 00:01:18;;;;;;;13.77;2.30;;;;;;;19.00;66.33;100078.91;5094801;28;20059;-62
2022/10/24 00:03:45;;;;;;;9.98;2.50;;;;;;;18.77;66.62;100067.13;5082024;28;20529;-61
2022/10/24 00:06:13;;;;;;;14.98;2.20;;;;;;;18.58;67.99;100072.91;5093985;28;20048;-62
2022/10/24 00:08:41;;;;;;;14.07;2.35;;;;;;;18.75;67.61;100081.47;5091459;28;20067;-62
2022/10/24 00:11:15;;;;;;;9.93;2.00;;;;;;;18.80;66.57;100071.94;5094279;28;20044;-63
2022/10/24 00:13:42;;;;;;;11.13;1.98;;;;;;;18.85;66.29;100060.41;5092465;28;20048;-62
2022/10/24 00:16:10;;;;;;;10.40;2.22;;;;;;;18.68;66.82;100067.44;5093798;28;20039;-61
2022/10/24 00:18:38;;;;;;;13.68;2.00;;;;;;;18.69;67.60;100060.66;5095840;28;20048;-61
2022/10/24 00:21:06;;;;;;;15.70;2.97;;;;;;;18.44;67.58;100064.38;5075815;28;20048;-61
2022/10/24 00:23:33;;;;;;;11.35;2.20;;;;;;;18.43;68.32;100065.59;5061575;28;20514;-63
2022/10/24 00:26:02;;;;;;;9.68;1.80;;;;;;;18.42;67.88;100069.53;5091673;28;20052;-61
2022/10/24 00:28:32;;;;;;;13.75;2.05;;;;;;;18.41;68.11;100067.94;5082417;28;20056;-62
2022/10/24 00:30:59;;;;;;;11.68;2.17;;;;;;;18.45;68.57;100072.38;5083148;28;20154;-61
2022/10/24 00:33:27;;;;;;;13.02;2.20;;;;;;;18.32;69.23;100068.22;5095398;28;20059;-60
2022/10/24 00:35:54;;;;;;;13.48;2.42;;;;;;;18.31;69.63;100074.16;5091829;28;20040;-61
2022/10/24 00:38:21;;;;;;;9.90;2.13;;;;;;;18.15;68.85;100084.72;5082547;28;20059;-61
2022/10/24 00:40:49;;;;;;;11.80;2.00;;;;;;;18.18;69.72;100086.75;5092130;28;20044;-62
2022/10/24 00:43:20;;;;;;;9.43;2.40;;;;;;;18.06;69.31;100078.63;5091254;28;20056;-60
2022/10/24 00:45:55;;;;;;;11.50;1.83;;;;;;;18.29;68.51;100077.31;5092542;28;20063;-61
2022/10/24 00:48:37;;;;;;;11.25;2.45;;;;;;;18.15;70.38;100077.16;5085856;28;20041;-61
2022/10/24 00:51:25;;;;;;;9.02;1.48;;;;;;;18.10;69.44;100071.13;5090885;28;20044;-62
2022/10/24 00:53:58;;;;;;;13.20;2.15;;;;;;;18.05;70.30;100082.59;5091849;28;20392;-62
2022/10/24 00:56:30;;;;;;;11.15;1.92;;;;;;;18.03;70.16;100082.97;5091084;28;20036;-62
2022/10/24 00:58:58;;;;;;;8.35;1.70;;;;;;;18.17;69.85;100093.50;5093629;28;20052;-61
2022/10/24 01:01:26;;;;;;;11.13;2.10;;;;;;;18.14;70.07;100097.03;5090483;28;20067;-61
2022/10/24 01:03:53;;;;;;;10.02;2.03;;;;;;;18.04;71.18;100101.31;5094870;28;20055;-61
2022/10/24 01:06:39;;;;;;;9.07;1.77;;;;;;;17.95;70.92;100101.59;5092300;28;20051;-61
2022/10/24 01:09:14;;;;;;;13.80;1.95;;;;;;;17.93;71.07;100094.78;5088138;28;20055;-61
2022/10/24 01:12:14;;;;;;;10.68;2.13;;;;;;;17.99;71.54;100104.44;5090814;28;20523;-61
2022/10/24 01:15:12;;;;;;;13.98;2.00;;;;;;;17.87;72.14;100115.78;5084353;28;20048;-61
2022/10/24 01:18:11;;;;;;;13.73;2.22;;;;;;;18.03;71.74;100129.56;5073486;28;20055;-61
2022/10/24 01:20:57;;;;;;;14.40;2.33;;;;;;;17.79;71.31;100139.16;5077949;28;20044;-62
2022/10/24 01:23:47;;;;;;;10.10;1.85;;;;;;;18.02;72.31;100134.34;5094123;28;20435;-61
2022/10/24 01:26:31;;;;;;;15.68;3.10;;;;;;;17.94;72.12;100147.34;5082485;28;20054;-61
2022/10/24 01:29:09;;;;;;;12.95;2.50;;;;;;;18.02;71.08;100153.84;5073055;28;20044;-61
2022/10/24 01:31:49;;;;;;;14.70;2.50;;;;;;;17.99;71.40;100154.59;5084242;28;20526;-62
2022/10/24 01:34:27;;;;;;;15.00;2.58;;;;;;;18.12;71.04;100152.38;5087694;28;20123;-61
2022/10/24 01:36:59;;;;;;;11.85;2.03;;;;;;;18.13;70.96;100151.19;5092632;28;20410;-61
2022/10/24 01:39:33;;;;;;;14.43;2.05;;;;;;;18.14;70.91;100142.47;5081027;28;20068;-61
2022/10/24 01:42:02;;;;;;;12.45;2.42;;;;;;;18.18;71.77;100153.66;5085101;28;20434;-61
2022/10/24 01:44:33;;;;;;;13.30;2.20;;;;;;;18.08;71.49;100154.31;5076407;28;20049;-62
2022/10/24 01:47:31;;;;;;;11.95;2.50;;;;;;;18.01;71.44;100145.84;5090564;28;21053;-62
2022/10/24 01:50:02;;;;;;;17.98;2.92;;;;;;;18.10;71.77;100140.81;5084770;28;20071;-62
2022/10/24 01:52:32;;;;;;;17.30;2.92;;;;;;;17.97;71.55;100145.81;5079431;28;20040;-62
2022/10/24 01:55:00;;;;;;;11.73;2.53;;;;;;;18.12;71.92;100150.38;5099231;28;20055;-61
2022/10/24 01:57:31;;;;;;;15.35;2.70;;;;;;;17.96;71.67;100133.84;5097973;28;20051;-61
2022/10/24 01:59:59;;;;;;;11.85;2.38;;;;;;;18.09;72.17;100148.38;5099347;28;20048;-61
2022/10/24 02:02:30;;;;;;;12.20;2.55;;;;;;;18.06;70.89;100134.38;5095170;28;20053;-61
2022/10/24 02:05:15;;;;;;;15.93;2.78;;;;;;;18.13;72.37;100134.47;5079055;28;20060;-62
2022/10/24 02:07:45;;;;;;;13.32;2.20;;;;;;;18.17;72.18;100135.31;5097688;28;21910;-61
2022/10/24 02:10:18;;;;;;;19.45;3.53;;;;;;;18.19;71.82;100139.34;5100676;28;20495;-61
2022/10/24 02:12:51;;;;;;;13.23;2.15;;;;;;;18.14;71.32;100144.44;5093041;28;20062;-61
2022/10/24 02:15:28;;;;;;;13.50;2.55;;;;;;;18.03;72.05;100127.56;5096692;28;20088;-62
2022/10/24 02:17:55;;;;;;;16.63;2.72;;;;;;;18.02;72.26;100120.41;5080292;28;20095;-61
2022/10/24 02:20:58;;;;;;;15.98;2.47;;;;;;;18.05;71.86;100119.63;5081403;28;20479;-63
2022/10/24 02:23:44;;;;;;;15.13;2.72;;;;;;;17.93;72.67;100117.88;5095860;28;20055;-60
2022/10/24 02:26:34;;;;;;;14.88;3.15;;;;;;;17.94;72.03;100115.88;5097397;28;20059;-62
2022/10/24 02:29:07;;;;;;;18.40;3.17;;;;;;;18.02;72.55;100109.25;5080863;28;20056;-61
2022/10/24 02:31:40;;;;;;;17.05;3.20;;;;;;;17.93;72.53;100108.72;5084990;28;20051;-61
2022/10/24 02:34:08;;;;;;;14.65;2.50;;;;;;;17.85;73.63;100113.38;5078904;28;20052;-61
2022/10/24 02:36:36;;;;;;;16.83;2.90;;;;;;;18.01;73.15;100104.06;5090407;28;20040;-61
2022/10/24 02:39:06;;;;;;;17.73;3.10;;;;;;;17.95;72.79;100096.03;5096206;28;20060;-61
2022/10/24 02:41:35;;;;;;;18.52;3.30;;;;;;;17.88;72.31;100089.53;5088276;28;20045;-62
2022/10/24 02:44:03;;;;;;;14.97;2.87;;;;;;;17.93;72.30;100086.44;5099596;28;20054;-65
2022/10/24 02:46:31;;;;;;;21.17;3.20;;;;;;;17.95;73.40;100098.00;5077004;28;20489;-62
2022/10/24 02:49:00;;;;;;;17.73;2.95;;;;;;;17.92;72.67;100101.56;5099091;28;20059;-62
2022/10/24 02:51:31;;;;;;;15.25;2.83;;;;;;;17.96;72.47;100080.91;5090702;28;20440;-61
2022/10/24 02:54:00;;;;;;;16.92;3.35;;;;;;;17.95;73.12;100079.31;5090839;28;20060;-63
2022/10/24 02:56:28;;;;;;;18.63;3.08;;;;;;;17.82;72.89;100083.50;5093953;28;20048;-62
2022/10/24 02:58:55;;;;;;;19.73;3.17;;;;;;;17.85;73.19;100079.94;5078655;28;20052;-61
2022/10/24 03:01:22;;;;;;;23.25;4.13;;;;;;;17.98;72.85;100089.69;5088894;28;20056;-61
2022/10/24 03:03:49;;;;;;;19.52;3.08;;;;;;;17.95;72.05;100090.47;5097169;28;20048;-61
2022/10/24 03:06:17;;;;;;;22.25;3.72;;;;;;;17.90;72.71;100087.97;5092566;28;20059;-61
2022/10/24 03:08:44;;;;;;;22.75;2.88;;;;;;;17.86;73.29;100098.28;5093341;28;20059;-61
2022/10/24 03:11:11;;;;;;;19.67;3.83;;;;;;;17.84;72.87;100092.28;5089923;28;20048;-61
2022/10/24 03:13:39;;;;;;;13.95;2.83;;;;;;;17.88;72.39;100092.34;5076171;28;20415;-61
2022/10/24 03:16:06;;;;;;;15.85;2.88;;;;;;;17.80;73.62;100099.00;5082952;28;20740;-61
2022/10/24 03:18:39;;;;;;;19.98;3.47;;;;;;;17.84;73.53;100105.41;5084222;28;20540;-61
2022/10/24 03:21:06;;;;;;;21.60;3.13;;;;;;;17.75;73.94;100108.47;5081433;28;20415;-61
2022/10/24 03:23:33;;;;;;;17.40;3.25;;;;;;;17.76;73.68;100103.72;5083195;28;20051;-61
2022/10/24 03:26:00;;;;;;;17.90;3.78;;;;;;;17.68;73.65;100107.56;5093835;28;20519;-62
2022/10/24 03:28:28;;;;;;;16.45;3.17;;;;;;;17.50;74.46;100109.28;5087470;28;20110;-64
2022/10/24 03:30:55;;;;;;;17.27;3.10;;;;;;;17.54;74.29;100112.94;5081294;28;20063;-61
2022/10/24 03:33:22;;;;;;;20.95;3.35;;;;;;;17.61;74.81;100108.25;5093126;28;20506;-61
2022/10/24 03:35:53;;;;;;;19.30;3.00;;;;;;;17.63;73.28;100122.63;5095620;27;20059;-61
2022/10/24 03:38:22;;;;;;;17.80;3.83;;;;;;;17.73;73.71;100126.75;5095352;28;20052;-62
2022/10/24 03:40:49;;;;;;;18.08;3.35;;;;;;;17.76;74.18;100123.22;5093016;28;20521;-61
2022/10/24 03:43:18;;;;;;;22.92;3.78;;;;;;;17.75;74.35;100130.75;5095813;28;20444;-61
2022/10/24 03:45:45;;;;;;;16.83;3.28;;;;;;;17.78;74.16;100135.56;5080612;28;20047;-62
2022/10/24 03:48:12;;;;;;;20.02;3.83;;;;;;;17.71;74.87;100127.09;5087902;28;20060;-62
2022/10/24 03:50:40;;;;;;;21.48;3.00;;;;;;;17.40;74.68;100124.59;5093513;28;20048;-62
2022/10/24 03:53:07;;;;;;;21.08;3.47;;;;;;;17.52;74.80;100118.84;5077739;28;20051;-61
2022/10/24 03:55:35;;;;;;;21.02;3.95;;;;;;;17.61;75.29;100135.28;5094974;28;20118;-61
2022/10/24 03:58:02;;;;;;;22.90;4.43;;;;;;;17.61;74.75;100136.09;5096430;27;20056;-61
2022/10/24 04:00:31;;;;;;;20.98;3.60;;;;;;;17.75;74.05;100149.44;5090075;28;20059;-63
2022/10/24 04:02:58;;;;;;;23.60;3.88;;;;;;;17.75;73.57;100144.69;5096034;28;20043;-62
2022/10/24 04:05:25;;;;;;;20.00;3.78;;;;;;;17.67;73.97;100144.94;5080713;28;20049;-62
2022/10/24 04:07:53;;;;;;;19.35;3.85;;;;;;;17.67;75.47;100151.34;5093673;28;20043;-63
2022/10/24 04:10:20;;;;;;;22.58;4.13;;;;;;;17.57;75.05;100151.94;5086220;28;20059;-61
2022/10/24 04:12:47;;;;;;;25.00;3.95;;;;;;;17.46;74.97;100164.91;5094530;28;20468;-61
2022/10/24 04:15:15;;;;;;;21.83;3.17;;;;;;;17.53;75.83;100158.66;5088165;28;20053;-62
2022/10/24 04:17:42;;;;;;;21.20;3.50;;;;;;;17.55;74.83;100164.66;5090174;28;20392;-62
2022/10/24 04:20:10;;;;;;;24.63;4.50;;;;;;;17.53;75.67;100162.25;5081147;28;20154;-63
2022/10/24 04:22:37;;;;;;;20.25;3.63;;;;;;;17.30;75.64;100178.13;5088186;28;20048;-62
2022/10/24 04:25:05;;;;;;;22.40;4.03;;;;;;;17.40;76.38;100171.16;5092729;28;20055;-61
2022/10/24 04:27:33;;;;;;;19.58;4.40;;;;;;;17.41;76.50;100179.13;5092797;28;20044;-62
2022/10/24 04:30:00;;;;;;;20.95;3.80;;;;;;;17.33;76.15;100180.16;5093813;28;20071;-61
2022/10/24 04:32:27;;;;;;;23.90;3.85;;;;;;;17.27;76.73;100183.63;5094018;28;20059;-62
2022/10/24 04:34:55;;;;;;;22.70;3.75;;;;;;;17.41;76.63;100195.00;5091085;28;20049;-62
2022/10/24 04:37:22;;;;;;;24.88;4.00;;;;;;;17.42;76.20;100199.41;5092397;28;20048;-61
2022/10/24 04:39:49;;;;;;;20.63;3.45;;;;;;;17.41;76.05;100209.75;5087534;28;20049;-61
2022/10/24 04:42:16;;;;;;;24.52;4.30;;;;;;;17.39;76.35;100206.53;5091789;28;20499;-62
2022/10/24 04:44:43;;;;;;;23.58;3.72;;;;;;;17.36;75.77;100207.28;5089638;28;20045;-61
2022/10/24 04:47:11;;;;;;;21.15;4.07;;;;;;;17.60;75.97;100223.63;5090218;28;20506;-62
2022/10/24 04:49:38;;;;;;;24.02;3.55;;;;;;;17.36;76.69;100225.94;5087190;28;20502;-61
2022/10/24 04:52:05;;;;;;;25.20;3.78;;;;;;;17.23;76.80;100221.72;5093527;28;20051;-61
2022/10/24 04:54:32;;;;;;;21.38;3.13;;;;;;;17.24;78.00;100217.78;5091579;28;20047;-61
2022/10/24 04:57:00;;;;;;;22.77;4.30;;;;;;;17.19;77.39;100213.31;5089831;28;20048;-61
2022/10/24 04:59:27;;;;;;;16.92;3.63;;;;;;;17.10;76.87;100218.34;5093164;28;20517;-61
2022/10/24 05:01:55;;;;;;;18.73;3.60;;;;;;;17.28;77.50;100233.38;5090546;28;20456;-61
2022/10/24 05:04:22;;;;;;;17.92;3.63;;;;;;;17.32;77.90;100241.78;5094362;28;20055;-62
2022/10/24 05:06:49;;;;;;;20.35;3.33;;;;;;;17.30;78.16;100249.69;5087434;28;20044;-62
2022/10/24 05:09:16;;;;;;;27.63;4.57;;;;;;;17.36;77.60;100256.56;5094918;28;20048;-62
2022/10/24 05:11:43;;;;;;;22.13;4.25;;;;;;;17.31;77.69;100249.31;5087304;28;20052;-62
2022/10/24 05:14:11;;;;;;;19.00;3.42;;;;;;;17.21;78.00;100261.06;5094303;28;20048;-61
2022/10/24 05:16:38;;;;;;;24.70;3.95;;;;;;;17.16;78.44;100266.13;5087711;28;20055;-61
2022/10/24 05:19:05;;;;;;;23.38;3.85;;;;;;;17.48;76.03;100262.81;5077543;28;20056;-61
2022/10/24 05:21:33;;;;;;;20.00;3.92;;;;;;;17.26;77.65;100271.09;5085652;28;20047;-62
2022/10/24 05:24:00;;;;;;;26.45;4.13;;;;;;;17.10;78.81;100268.44;5079973;28;20067;-62
2022/10/24 05:26:27;;;;;;;24.40;4.22;;;;;;;17.06;78.93;100275.88;5085177;28;20111;-61
2022/10/24 05:28:55;;;;;;;22.55;3.65;;;;;;;17.27;78.37;100269.91;5087076;28;20165;-62
2022/10/24 05:31:22;;;;;;;27.15;3.92;;;;;;;17.18;78.56;100280.47;5089862;28;20486;-61
2022/10/24 05:33:50;;;;;;;22.75;3.75;;;;;;;17.24;78.46;100279.03;5082604;28;20057;-61
2022/10/24 05:36:17;;;;;;;19.70;3.92;;;;;;;17.22;78.50;100296.09;5084522;28;20047;-61
2022/10/24 05:38:44;;;;;;;23.63;4.53;;;;;;;17.20;78.67;100281.72;5091720;28;20052;-61
2022/10/24 05:41:11;;;;;;;24.52;4.65;;;;;;;17.26;78.40;100293.38;5070199;28;20055;-67
2022/10/24 05:43:38;;;;;;;21.27;3.83;;;;;;;17.28;78.82;100293.78;5094274;28;20040;-62
2022/10/24 05:46:06;;;;;;;18.33;3.65;;;;;;;17.25;78.98;100286.19;5092733;28;20597;-61
2022/10/24 05:48:34;;;;;;;20.73;3.83;;;;;;;17.21;78.97;100294.47;5094595;28;20560;-61
2022/10/24 05:51:02;;;;;;;21.85;4.20;;;;;;;17.38;78.49;100291.22;5091499;28;20415;-61
2022/10/24 05:53:29;;;;;;;23.40;4.00;;;;;;;17.42;78.43;100297.66;5093759;28;20491;-61
2022/10/24 05:55:56;;;;;;;26.75;4.63;;;;;;;17.39;78.75;100284.47;5091918;28;20056;-62
2022/10/24 05:58:23;;;;;;;22.83;4.60;;;;;;;17.18;78.61;100288.81;5094488;28;20055;-62
2022/10/24 06:00:51;;;;;;;21.75;3.88;;;;;;;17.24;78.88;100295.72;5094038;28;20047;-62
2022/10/24 06:03:21;;;;;;;23.55;4.60;;;;;;;17.31;78.53;100293.84;5085349;28;20079;-62
2022/10/24 06:05:49;;;;;;;22.42;4.38;;;;;;;17.37;77.87;100303.53;5086240;28;20036;-62
2022/10/24 06:08:16;;;;;;;20.30;3.78;;;;;;;17.41;78.43;100301.63;5091310;28;20448;-61
2022/10/24 06:10:46;;;;;;;18.85;3.63;;;;;;;17.32;78.14;100300.25;5099278;28;20047;-61
2022/10/24 06:13:14;;;;;;;23.30;4.40;;;;;;;17.31;78.57;100299.44;5093388;28;20052;-61
2022/10/24 06:15:42;;;;;;;29.58;4.65;;;;;;;17.46;78.71;100301.34;5092562;28;20068;-60
2022/10/24 06:18:09;;;;;;;24.75;4.85;;;;;;;17.38;79.55;100291.22;5069998;28;20358;-62
2022/10/24 06:20:37;;;;;;;21.30;4.43;;;;;;;17.21;81.46;100302.03;5081715;28;20092;-62
2022/10/24 06:23:04;;;;;;;27.15;4.70;;;;;;;17.19;81.87;100299.59;5085938;28;20130;-61
2022/10/24 06:25:31;;;;;;;28.23;4.30;;;;;;;17.21;82.38;100293.69;5067845;28;20044;-61
2022/10/24 06:27:59;;;;;;;26.17;3.92;;;;;;;17.26;83.36;100288.59;5088211;28;20430;-60
2022/10/24 06:30:26;;;;;;;22.55;4.40;;;;;;;17.26;82.12;100310.09;5090655;28;20056;-61
2022/10/24 06:32:53;;;;;;;26.13;4.38;;;;;;;17.16;82.24;100310.66;5093721;28;20510;-60
2022/10/24 06:35:21;;;;;;;29.40;5.13;;;;;;;17.27;82.21;100309.72;5082604;28;20032;-62
2022/10/24 06:37:48;;;;;;;26.60;4.68;;;;;;;17.29;82.74;100323.25;5086816;28;20049;-63
2022/10/24 06:40:17;;;;;;;33.38;6.18;;;;;;;17.26;82.97;100324.78;5090100;28;20162;-61
2022/10/24 06:42:44;;;;;;;29.60;7.50;;;;;;;17.25;83.22;100334.31;5088605;28;20062;-60
2022/10/24 06:45:12;;;;;;;18.33;4.90;;;;;;;17.49;83.65;100334.03;5088283;28;20036;-60
2022/10/24 06:47:39;;;;;;;25.25;6.00;;;;;;;17.88;83.23;100331.97;5081873;28;20047;-60
2022/10/24 06:50:07;;;;;;;27.73;7.25;;;;;;;17.93;81.09;100340.81;5108896;28;20082;-61
2022/10/24 06:52:35;;;;;;;31.17;10.75;;;;;;;17.90;79.84;100326.81;5084029;28;20317;-60
2022/10/24 06:55:03;;;;;;;39.55;14.70;;;;;;;17.92;79.68;100322.47;5095036;28;20047;-62
2022/10/24 06:57:30;;;;;;;27.65;5.38;;;;;;;17.84;76.99;100323.53;5096153;28;20419;-60
2022/10/24 06:59:57;;;;;;;25.60;6.07;;;;;;;17.84;77.67;100323.53;5093968;28;20056;-59
2022/10/24 07:02:25;;;;;;;27.08;6.43;;;;;;;18.01;78.48;100322.22;5087176;28;20052;-60
2022/10/24 07:04:52;;;;;;;26.20;7.55;;;;;;;18.01;77.18;100327.00;5090932;28;20040;-61
2022/10/24 07:07:20;;;;;;;27.02;5.50;;;;;;;17.87;76.74;100330.34;5092355;28;20050;-60
2022/10/24 07:09:55;;;;;;;30.92;4.97;;;;;;;17.81;76.63;100346.59;5096449;28;20052;-60
2022/10/24 07:12:23;;;;;;;20.60;5.28;;;;;;;17.86;78.20;100349.06;5096131;28;20079;-58
2022/10/24 07:14:51;;;;;;;23.65;5.15;;;;;;;17.90;77.38;100349.91;5089566;28;20044;-59
2022/10/24 07:17:19;;;;;;;22.50;5.40;;;;;;;17.72;75.54;100365.50;5093514;28;20148;-59
2022/10/24 07:19:53;;;;;;;27.23;6.40;;;;;;;17.76;75.15;100369.19;5095188;28;20398;-61
2022/10/24 07:22:20;;;;;;;29.80;4.72;;;;;;;17.81;74.44;100371.66;5091124;28;20052;-62
2022/10/24 07:24:54;;;;;;;24.75;4.75;;;;;;;17.66;74.16;100371.75;5093464;28;20060;-61
2022/10/24 07:27:22;;;;;;;23.75;4.53;;;;;;;17.89;74.64;100381.75;5093164;28;20063;-66
2022/10/24 07:29:50;;;;;;;28.60;4.85;;;;;;;17.84;74.01;100378.44;5072069;28;20085;-60
2022/10/24 07:32:18;;;;;;;26.58;4.53;;;;;;;17.93;73.54;100385.41;5084409;28;20496;-60
2022/10/24 07:34:46;;;;;;;27.60;6.78;;;;;;;17.93;73.57;100387.38;5100267;28;20055;-60
2022/10/24 07:37:15;;;;;;;27.02;10.55;;;;;;;18.09;72.92;100385.28;5108390;28;20043;-62
2022/10/24 07:39:42;;;;;;;31.27;7.90;;;;;;;18.17;73.22;100377.84;5106312;28;20054;-61
2022/10/24 07:42:11;;;;;;;28.92;5.13;;;;;;;18.07;72.84;100390.44;5101986;28;20436;-61
2022/10/24 07:44:38;;;;;;;29.65;5.13;;;;;;;17.92;73.53;100394.16;5108019;28;20232;-60
2022/10/24 07:47:07;;;;;;;26.02;4.45;;;;;;;18.11;73.61;100410.00;5093447;28;20052;-60
2022/10/24 07:49:35;;;;;;;23.83;4.77;;;;;;;18.06;73.48;100415.88;5109052;28;20047;-59
2022/10/24 07:52:03;;;;;;;22.58;4.10;;;;;;;18.04;73.29;100410.69;5104299;28;20301;-60
2022/10/24 07:54:30;;;;;;;26.17;4.93;;;;;;;17.87;73.52;100416.72;5108467;28;20044;-59
2022/10/24 07:57:03;;;;;;;27.35;4.05;;;;;;;17.91;73.68;100418.41;5100427;28;20422;-59
2022/10/24 07:59:31;;;;;;;26.27;4.80;;;;;;;18.04;74.16;100421.03;5095170;28;20059;-60
2022/10/24 08:02:14;;;;;;;29.67;4.85;;;;;;;18.09;74.20;100434.66;5098322;28;20059;-60
2022/10/24 08:04:42;;;;;;;26.42;5.45;;;;;;;18.07;73.50;100428.63;5090808;28;20032;-61
2022/10/24 08:07:13;;;;;;;28.48;5.20;;;;;;;18.13;73.91;100436.34;5093894;28;20048;-61
2022/10/24 08:09:43;;;;;;;22.30;4.15;;;;;;;18.31;73.41;100433.84;5095533;28;20055;-60
2022/10/24 08:12:10;;;;;;;27.52;4.07;;;;;;;18.27;73.05;100444.94;5093143;28;20047;-59
2022/10/24 08:14:39;;;;;;;23.38;4.10;;;;;;;18.18;72.80;100435.22;5092320;28;20048;-60
2022/10/24 08:17:07;;;;;;;24.58;5.18;;;;;;;18.16;73.29;100443.97;5091561;28;20051;-63
2022/10/24 08:19:35;;;;;;;27.60;6.43;;;;;;;18.12;74.07;100434.72;5092245;28;20056;-61
2022/10/24 08:22:02;;;;;;;30.67;7.22;;;;;;;18.37;73.18;100444.34;5089819;28;20044;-62
2022/10/24 08:24:29;;;;;;;31.63;4.50;;;;;;;18.45;72.94;100448.06;5094149;28;20040;-63
2022/10/24 08:26:58;;;;;;;26.92;4.50;;;;;;;18.37;73.15;100457.47;5092823;28;20071;-61
2022/10/24 08:29:25;;;;;;;24.10;5.35;;;;;;;18.50;72.78;100444.97;5099502;28;20062;-60
2022/10/24 08:31:54;;;;;;;27.67;4.63;;;;;;;18.52;72.45;100437.84;5092503;28;20051;-63
2022/10/24 08:34:22;;;;;;;27.55;4.78;;;;;;;18.59;72.37;100439.94;5092064;28;20040;-61
2022/10/24 08:36:49;;;;;;;24.30;4.20;;;;;;;18.63;73.81;100451.97;5090830;28;20052;-61
2022/10/24 08:39:17;;;;;;;25.92;4.63;;;;;;;18.53;72.50;100452.59;5090654;28;20060;-62
2022/10/24 08:41:54;;;;;;;19.27;3.95;;;;;;;18.76;73.36;100450.56;5093284;28;20059;-63
2022/10/24 08:44:34;;;;;;;29.08;4.28;;;;;;;18.85;71.76;100451.94;5106947;28;20252;-64
2022/10/24 08:47:18;;;;;;;28.40;7.63;;;;;;;18.91;72.30;100444.06;5099095;28;20054;-62
2022/10/24 08:49:49;;;;;;;23.13;6.18;;;;;;;18.77;70.94;100455.00;5101014;28;20066;-62
2022/10/24 08:52:39;;;;;;;23.50;5.07;;;;;;;18.67;71.38;100458.41;5101293;28;20505;-62
2022/10/24 08:55:20;;;;;;;24.77;4.30;;;;;;;18.88;71.04;100453.97;5083231;28;20047;-63
2022/10/24 08:58:14;;;;;;;24.92;4.50;;;;;;;18.80;70.47;100457.03;5110219;28;20062;-62
2022/10/24 09:00:44;;;;;;;28.42;6.32;;;;;;;18.71;71.49;100460.06;5102922;28;20483;-62
2022/10/24 09:03:20;;;;;;;;;;;;;;;18.80;70.60;100451.44;5093457;28;20035;-61
2022/10/24 09:06:07;;;;;;;22.52;4.40;;;;;;;18.63;71.57;100457.53;5093263;28;19920;-62
2022/10/24 09:08:43;;;;;;;23.65;4.38;;;;;;;18.53;72.10;100452.59;5103403;28;20048;-63
2022/10/24 09:11:15;;;;;;;26.10;5.60;;;;;;;18.63;72.06;100457.53;5114010;27;20054;-62
2022/10/24 09:13:43;;;;;;;29.90;4.88;;;;;;;18.72;72.28;100464.50;5106582;28;20388;-63
2022/10/24 09:16:13;;;;;;;24.83;5.13;;;;;;;18.73;71.68;100459.69;5092546;28;20062;-61
2022/10/24 09:18:42;;;;;;;26.00;5.03;;;;;;;18.64;71.59;100471.13;5080905;28;20052;-60
2022/10/24 09:21:12;;;;;;;32.10;5.45;;;;;;;18.82;71.53;100471.41;5091692;28;20036;-61
2022/10/24 09:23:40;;;;;;;26.50;5.07;;;;;;;18.79;71.04;100474.97;5075137;28;20059;-62
2022/10/24 09:26:15;;;;;;;25.70;5.13;;;;;;;18.96;70.67;100469.66;5092607;28;20040;-63
2022/10/24 09:28:43;;;;;;;24.27;5.70;;;;;;;19.11;70.03;100475.47;5090601;28;20499;-63
2022/10/24 09:31:16;;;;;;;27.95;6.57;;;;;;;19.13;69.54;100482.25;5083594;28;20045;-61
2022/10/24 09:33:44;;;;;;;23.17;4.10;;;;;;;19.18;69.63;100483.94;5091276;28;20047;-61
2022/10/24 09:36:14;;;;;;;29.25;4.97;;;;;;;19.16;69.33;100478.72;5092927;28;20075;-62
2022/10/24 09:38:42;;;;;;;19.90;4.38;;;;;;;19.25;69.25;100484.03;5092420;28;20351;-62
2022/10/24 09:41:09;;;;;;;23.50;5.05;;;;;;;19.21;68.89;100491.56;5085813;28;20063;-63
2022/10/24 09:43:43;;;;;;;23.15;5.28;;;;;;;19.21;68.72;100492.38;5091786;28;20435;-61
2022/10/24 09:46:29;;;;;;;20.92;4.13;;;;;;;19.21;68.29;100500.75;5092470;28;20046;-61
2022/10/24 09:49:17;;;;;;;20.00;4.15;;;;;;;19.32;68.87;100506.53;5087216;28;20079;-61
2022/10/24 09:51:48;;;;;;;21.30;5.53;;;;;;;19.16;69.97;100503.84;5077556;28;20718;-62
2022/10/24 09:54:18;;;;;;;22.65;4.85;;;;;;;19.21;69.94;100509.13;5085606;28;20039;-61
2022/10/24 09:56:47;;;;;;;;;;;;;;;19.13;70.32;100509.38;5089374;28;20050;-62
2022/10/24 09:59:31;;;;;;;23.65;6.63;;;;;;;19.38;70.01;100513.38;5092698;28;20024;-60
2022/10/24 10:02:21;;;;;;;26.42;4.80;;;;;;;19.28;70.13;100509.22;5091578;28;20063;-61
2022/10/24 10:05:17;;;;;;;31.13;5.00;;;;;;;19.27;70.92;100518.78;5091163;28;20468;-61
2022/10/24 10:07:47;;;;;;;22.77;4.53;;;;;;;19.36;70.61;100516.56;5086836;28;20061;-66
2022/10/24 10:10:17;;;;;;;18.80;5.03;;;;;;;19.00;70.59;100519.97;5092180;28;20071;-61
2022/10/24 10:12:46;;;;;;;;;;;;;;;19.25;69.93;100523.94;5095399;28;20048;-63
2022/10/24 10:15:31;;;;;;;26.85;4.55;;;;;;;19.44;69.33;100520.25;5095877;28;19920;-62
2022/10/24 10:18:05;;;;;;;17.38;4.60;;;;;;;19.28;69.12;100523.19;5109114;28;20138;-67
2022/10/24 10:20:41;;;;;;;21.00;5.43;;;;;;;19.43;68.98;100518.63;5095622;28;20060;-61
2022/10/24 10:23:40;;;;;;;23.73;4.97;;;;;;;19.48;69.23;100519.13;5096604;28;20044;-61
2022/10/24 10:26:18;;;;;;;20.48;5.88;;;;;;;19.61;69.10;100508.53;5082958;28;20052;-61
2022/10/24 10:29:00;;;;;;;22.15;4.80;;;;;;;19.80;67.96;100517.56;5090615;28;20056;-62
2022/10/24 10:31:35;;;;;;;23.92;4.43;;;;;;;19.58;68.39;100518.44;5087688;28;20583;-61
2022/10/24 10:34:09;;;;;;;24.83;4.78;;;;;;;19.74;69.31;100513.47;5080889;28;20052;-65
2022/10/24 10:37:15;;;;;;;22.15;6.20;;;;;;;19.90;67.91;100511.28;5088346;28;20593;-60
2022/10/24 10:40:08;;;;;;;36.25;11.00;;;;;;;19.86;67.60;100529.19;5084978;28;20617;-61
2022/10/24 10:42:42;;;;;;;31.02;9.15;;;;;;;20.00;66.86;100526.56;5085240;28;20056;-61
2022/10/24 10:45:14;;;;;;;23.73;6.25;;;;;;;19.99;66.80;100527.78;5087923;28;20060;-61
2022/10/24 10:47:46;;;;;;;30.05;8.13;;;;;;;20.09;66.92;100539.09;5089654;28;20047;-61
2022/10/24 10:50:40;;;;;;;21.98;5.80;;;;;;;20.45;65.29;100523.50;5086843;28;20048;-61
2022/10/24 10:53:30;;;;;;;26.17;7.00;;;;;;;20.31;65.71;100534.56;5090410;28;20049;-62
2022/10/24 10:56:10;;;;;;;22.50;7.03;;;;;;;20.20;66.01;100527.25;5093985;28;20055;-61
2022/10/24 10:59:03;;;;;;;35.03;10.50;;;;;;;20.03;66.86;100525.84;5094027;28;20058;-60
2022/10/24 11:01:55;;;;;;;28.30;8.23;;;;;;;20.47;65.46;100531.56;5090380;28;20044;-59
2022/10/24 11:04:36;;;;;;;23.25;11.70;;;;;;;20.44;65.43;100527.50;5092647;28;20060;-60
2022/10/24 11:07:29;;;;;;;22.85;8.35;;;;;;;20.69;63.31;100531.38;5092434;28;20052;-61
2022/10/24 11:10:00;;;;;;;25.85;7.10;;;;;;;20.72;63.51;100540.97;5092180;28;20052;-60
2022/10/24 11:12:31;;;;;;;18.10;6.38;;;;;;;20.70;63.67;100534.94;5086520;28;20059;-62
2022/10/24 11:15:19;;;;;;;24.85;7.13;;;;;;;20.75;64.00;100532.59;5104022;28;20051;-62
2022/10/24 11:17:51;;;;;;;34.67;18.17;;;;;;;20.84;63.67;100538.69;5093893;28;20040;-62
2022/10/24 11:20:47;;;;;;;24.38;7.63;;;;;;;20.77;63.30;100535.84;5076500;28;20051;-62
2022/10/24 11:23:52;;;;;;;21.52;5.25;;;;;;;20.72;63.58;100526.97;5095734;28;20048;-61
2022/10/24 11:26:25;;;;;;;19.92;5.63;;;;;;;20.43;63.62;100527.91;5094182;28;20055;-61
2022/10/24 11:29:03;;;;;;;21.10;6.57;;;;;;;20.55;64.24;100534.03;5093498;28;20051;-61
2022/10/24 11:31:39;;;;;;;19.23;4.63;;;;;;;20.71;63.60;100531.75;5089882;28;20044;-62
2022/10/24 11:34:14;;;;;;;19.15;4.50;;;;;;;20.74;62.98;100527.41;5096459;28;20040;-61
2022/10/24 11:36:45;;;;;;;15.48;3.92;;;;;;;20.74;63.50;100525.41;5090375;28;20043;-62
2022/10/24 11:39:28;;;;;;;20.05;5.45;;;;;;;20.55;63.50;100536.00;5094003;28;20593;-62